sensor_id;sensor_type;location;lat;lon;timestamp;P1;durP1;ratioP1;P2;durP2;ratioP2
16228;SDS011;8222;51.462;12.630;2023-11-21T00:01:16;2.13;;;1.88;;
16228;SDS011;8222;51.462;12.630;2023-11-21T00:03:44;2.47;;;1.92;;
16228;SDS011;8222;51.462;12.630;2023-11-21T00:06:10;3.95;;;2.50;;
16228;SDS011;8222;51.462;12.630;2023-11-21T00:08:36;4.53;;;1.87;;
16228;SDS011;8222;51.462;12.630;2023-11-21T00:11:01;4.43;;;2.67;;
16228;SDS011;8222;51.462;12.630;2023-11-21T00:13:30;3.73;;;2.60;;
16228;SDS011;8222;51.462;12.630;2023-11-21T00:16:01;3.33;;;2.25;;
16228;SDS011;8222;51.462;12.630;2023-11-21T00:18:29;3.50;;;2.60;;
16228;SDS011;8222;51.462;12.630;2023-11-21T00:20:57;2.73;;;1.93;;
16228;SDS011;8222;51.462;12.630;2023-11-21T00:23:24;1.80;;;1.70;;
16228;SDS011;8222;51.462;12.630;2023-11-21T00:25:49;2.60;;;2.37;;
16228;SDS011;8222;51.462;12.630;2023-11-21T00:28:15;4.43;;;2.10;;
16228;SDS011;8222;51.462;12.630;2023-11-21T00:30:43;2.53;;;2.17;;
16228;SDS011;8222;51.462;12.630;2023-11-21T00:33:09;2.87;;;2.60;;
16228;SDS011;8222;51.462;12.630;2023-11-21T00:35:35;4.97;;;2.17;;
16228;SDS011;8222;51.462;12.630;2023-11-21T00:38:04;2.53;;;2.20;;
16228;SDS011;8222;51.462;12.630;2023-11-21T00:40:30;2.57;;;2.10;;
16228;SDS011;8222;51.462;12.630;2023-11-21T00:42:55;2.60;;;2.37;;
16228;SDS011;8222;51.462;12.630;2023-11-21T00:45:23;2.35;;;2.03;;
16228;SDS011;8222;51.462;12.630;2023-11-21T00:47:49;3.13;;;2.20;;
16228;SDS011;8222;51.462;12.630;2023-11-21T00:50:17;5.18;;;2.40;;
16228;SDS011;8222;51.462;12.630;2023-11-21T00:52:45;3.17;;;2.22;;
16228;SDS011;8222;51.462;12.630;2023-11-21T00:55:15;3.58;;;2.25;;
16228;SDS011;8222;51.462;12.630;2023-11-21T00:57:43;2.33;;;2.13;;
16228;SDS011;8222;51.462;12.630;2023-11-21T01:00:09;2.83;;;2.28;;
16228;SDS011;8222;51.462;12.630;2023-11-21T01:02:45;2.88;;;1.83;;
16228;SDS011;8222;51.462;12.630;2023-11-21T01:05:11;4.05;;;1.98;;
16228;SDS011;8222;51.462;12.630;2023-11-21T01:07:37;4.30;;;2.28;;
16228;SDS011;8222;51.462;12.630;2023-11-21T01:10:03;3.85;;;2.67;;
16228;SDS011;8222;51.462;12.630;2023-11-21T01:12:36;4.38;;;2.42;;
16228;SDS011;8222;51.462;12.630;2023-11-21T01:15:03;2.72;;;2.45;;
16228;SDS011;8222;51.462;12.630;2023-11-21T01:17:32;5.47;;;2.20;;
16228;SDS011;8222;51.462;12.630;2023-11-21T01:19:59;3.95;;;2.92;;
16228;SDS011;8222;51.462;12.630;2023-11-21T01:22:25;3.13;;;2.83;;
16228;SDS011;8222;51.462;12.630;2023-11-21T01:24:52;2.97;;;2.78;;
16228;SDS011;8222;51.462;12.630;2023-11-21T01:27:18;3.30;;;2.15;;
16228;SDS011;8222;51.462;12.630;2023-11-21T01:29:44;4.75;;;2.45;;
16228;SDS011;8222;51.462;12.630;2023-11-21T01:32:12;3.83;;;2.40;;
16228;SDS011;8222;51.462;12.630;2023-11-21T01:34:38;2.83;;;2.58;;
16228;SDS011;8222;51.462;12.630;2023-11-21T01:37:06;4.57;;;2.90;;
16228;SDS011;8222;51.462;12.630;2023-11-21T01:39:31;4.82;;;3.38;;
16228;SDS011;8222;51.462;12.630;2023-11-21T01:41:57;2.80;;;2.23;;
16228;SDS011;8222;51.462;12.630;2023-11-21T01:44:26;4.40;;;2.85;;
16228;SDS011;8222;51.462;12.630;2023-11-21T01:46:51;5.10;;;2.97;;
16228;SDS011;8222;51.462;12.630;2023-11-21T01:49:18;3.83;;;3.42;;
16228;SDS011;8222;51.462;12.630;2023-11-21T01:51:46;4.95;;;3.40;;
16228;SDS011;8222;51.462;12.630;2023-11-21T01:54:16;5.07;;;2.90;;
16228;SDS011;8222;51.462;12.630;2023-11-21T01:56:46;4.07;;;2.53;;
16228;SDS011;8222;51.462;12.630;2023-11-21T01:59:18;4.47;;;3.17;;
16228;SDS011;8222;51.462;12.630;2023-11-21T02:01:50;3.43;;;3.13;;
16228;SDS011;8222;51.462;12.630;2023-11-21T02:04:15;3.60;;;3.30;;
16228;SDS011;8222;51.462;12.630;2023-11-21T02:06:41;4.00;;;2.92;;
16228;SDS011;8222;51.462;12.630;2023-11-21T02:09:07;4.13;;;2.57;;
16228;SDS011;8222;51.462;12.630;2023-11-21T02:11:34;4.80;;;3.28;;
16228;SDS011;8222;51.462;12.630;2023-11-21T02:14:04;4.30;;;2.83;;
16228;SDS011;8222;51.462;12.630;2023-11-21T02:16:34;4.68;;;3.35;;
16228;SDS011;8222;51.462;12.630;2023-11-21T02:19:04;4.80;;;3.83;;
16228;SDS011;8222;51.462;12.630;2023-11-21T02:21:35;5.20;;;3.03;;
16228;SDS011;8222;51.462;12.630;2023-11-21T02:24:05;4.57;;;2.83;;
16228;SDS011;8222;51.462;12.630;2023-11-21T02:26:31;3.28;;;2.88;;
16228;SDS011;8222;51.462;12.630;2023-11-21T02:28:59;3.80;;;2.83;;
16228;SDS011;8222;51.462;12.630;2023-11-21T02:31:32;4.88;;;3.10;;
16228;SDS011;8222;51.462;12.630;2023-11-21T02:34:00;4.75;;;2.88;;
16228;SDS011;8222;51.462;12.630;2023-11-21T02:36:26;3.30;;;3.00;;
16228;SDS011;8222;51.462;12.630;2023-11-21T02:38:54;3.03;;;1.93;;
16228;SDS011;8222;51.462;12.630;2023-11-21T02:41:19;2.60;;;2.07;;
16228;SDS011;8222;51.462;12.630;2023-11-21T02:43:45;3.50;;;2.50;;
16228;SDS011;8222;51.462;12.630;2023-11-21T02:46:11;4.40;;;2.83;;
16228;SDS011;8222;51.462;12.630;2023-11-21T02:48:39;5.70;;;2.70;;
16228;SDS011;8222;51.462;12.630;2023-11-21T02:51:06;4.88;;;2.90;;
16228;SDS011;8222;51.462;12.630;2023-11-21T02:53:32;4.93;;;2.50;;
16228;SDS011;8222;51.462;12.630;2023-11-21T02:55:58;5.00;;;2.70;;
16228;SDS011;8222;51.462;12.630;2023-11-21T02:58:23;3.43;;;2.50;;
16228;SDS011;8222;51.462;12.630;2023-11-21T03:00:49;4.30;;;2.40;;
16228;SDS011;8222;51.462;12.630;2023-11-21T03:03:15;4.68;;;2.55;;
16228;SDS011;8222;51.462;12.630;2023-11-21T03:05:45;5.97;;;2.67;;
16228;SDS011;8222;51.462;12.630;2023-11-21T03:08:11;2.95;;;2.15;;
16228;SDS011;8222;51.462;12.630;2023-11-21T03:10:39;3.40;;;2.50;;
16228;SDS011;8222;51.462;12.630;2023-11-21T03:13:12;3.60;;;2.43;;
16228;SDS011;8222;51.462;12.630;2023-11-21T03:15:38;2.63;;;1.60;;
16228;SDS011;8222;51.462;12.630;2023-11-21T03:18:07;4.57;;;2.90;;
16228;SDS011;8222;51.462;12.630;2023-11-21T03:20:33;4.07;;;2.78;;
16228;SDS011;8222;51.462;12.630;2023-11-21T03:23:00;4.35;;;2.65;;
16228;SDS011;8222;51.462;12.630;2023-11-21T03:25:25;3.20;;;2.70;;
16228;SDS011;8222;51.462;12.630;2023-11-21T03:27:52;3.55;;;2.67;;
16228;SDS011;8222;51.462;12.630;2023-11-21T03:30:18;3.75;;;2.33;;
16228;SDS011;8222;51.462;12.630;2023-11-21T03:32:44;5.80;;;2.50;;
16228;SDS011;8222;51.462;12.630;2023-11-21T03:35:10;4.65;;;2.50;;
16228;SDS011;8222;51.462;12.630;2023-11-21T03:37:36;3.63;;;1.87;;
16228;SDS011;8222;51.462;12.630;2023-11-21T03:40:03;3.60;;;2.83;;
16228;SDS011;8222;51.462;12.630;2023-11-21T03:42:29;4.05;;;2.65;;
16228;SDS011;8222;51.462;12.630;2023-11-21T03:45:00;3.65;;;2.40;;
16228;SDS011;8222;51.462;12.630;2023-11-21T03:47:26;3.57;;;2.37;;
16228;SDS011;8222;51.462;12.630;2023-11-21T03:49:52;4.20;;;2.77;;
16228;SDS011;8222;51.462;12.630;2023-11-21T03:52:18;4.47;;;2.47;;
16228;SDS011;8222;51.462;12.630;2023-11-21T03:54:46;2.60;;;2.40;;
16228;SDS011;8222;51.462;12.630;2023-11-21T03:57:12;4.53;;;2.47;;
16228;SDS011;8222;51.462;12.630;2023-11-21T03:59:41;2.30;;;2.07;;
16228;SDS011;8222;51.462;12.630;2023-11-21T04:02:10;2.60;;;2.28;;
16228;SDS011;8222;51.462;12.630;2023-11-21T04:04:36;4.07;;;2.53;;
16228;SDS011;8222;51.462;12.630;2023-11-21T04:07:02;1.97;;;1.87;;
16228;SDS011;8222;51.462;12.630;2023-11-21T04:09:36;7.20;;;2.83;;
16228;SDS011;8222;51.462;12.630;2023-11-21T04:12:04;3.28;;;2.75;;
16228;SDS011;8222;51.462;12.630;2023-11-21T04:14:33;4.20;;;2.95;;
16228;SDS011;8222;51.462;12.630;2023-11-21T04:17:08;5.28;;;3.28;;
16228;SDS011;8222;51.462;12.630;2023-11-21T04:19:34;3.57;;;2.70;;
16228;SDS011;8222;51.462;12.630;2023-11-21T04:22:03;4.80;;;3.53;;
16228;SDS011;8222;51.462;12.630;2023-11-21T04:24:31;4.50;;;3.07;;
16228;SDS011;8222;51.462;12.630;2023-11-21T04:26:57;6.20;;;3.58;;
16228;SDS011;8222;51.462;12.630;2023-11-21T04:29:22;5.60;;;3.40;;
16228;SDS011;8222;51.462;12.630;2023-11-21T04:31:48;4.33;;;3.30;;
16228;SDS011;8222;51.462;12.630;2023-11-21T04:34:16;4.00;;;3.23;;
16228;SDS011;8222;51.462;12.630;2023-11-21T04:36:47;5.43;;;3.47;;
16228;SDS011;8222;51.462;12.630;2023-11-21T04:39:13;5.82;;;3.40;;
16228;SDS011;8222;51.462;12.630;2023-11-21T04:41:41;6.22;;;3.42;;
16228;SDS011;8222;51.462;12.630;2023-11-21T04:44:07;6.50;;;3.73;;
16228;SDS011;8222;51.462;12.630;2023-11-21T04:46:36;4.87;;;3.10;;
16228;SDS011;8222;51.462;12.630;2023-11-21T04:49:02;3.87;;;2.40;;
16228;SDS011;8222;51.462;12.630;2023-11-21T04:51:30;5.63;;;3.97;;
16228;SDS011;8222;51.462;12.630;2023-11-21T04:53:57;4.93;;;3.10;;
16228;SDS011;8222;51.462;12.630;2023-11-21T04:56:23;4.13;;;3.23;;
16228;SDS011;8222;51.462;12.630;2023-11-21T04:58:49;5.97;;;2.90;;
16228;SDS011;8222;51.462;12.630;2023-11-21T05:01:20;6.70;;;3.20;;
16228;SDS011;8222;51.462;12.630;2023-11-21T05:03:48;3.37;;;2.93;;
16228;SDS011;8222;51.462;12.630;2023-11-21T05:06:14;3.85;;;3.10;;
16228;SDS011;8222;51.462;12.630;2023-11-21T05:08:43;3.53;;;3.23;;
16228;SDS011;8222;51.462;12.630;2023-11-21T05:11:08;6.13;;;3.83;;
16228;SDS011;8222;51.462;12.630;2023-11-21T05:13:35;9.32;;;3.58;;
16228;SDS011;8222;51.462;12.630;2023-11-21T05:16:04;6.68;;;4.28;;
16228;SDS011;8222;51.462;12.630;2023-11-21T05:18:32;4.23;;;2.97;;
16228;SDS011;8222;51.462;12.630;2023-11-21T05:20:59;20.30;;;16.07;;
16228;SDS011;8222;51.462;12.630;2023-11-21T05:23:25;6.50;;;3.90;;
16228;SDS011;8222;51.462;12.630;2023-11-21T05:25:54;6.28;;;4.20;;
16228;SDS011;8222;51.462;12.630;2023-11-21T05:28:21;5.17;;;3.97;;
16228;SDS011;8222;51.462;12.630;2023-11-21T05:30:47;4.60;;;3.30;;
16228;SDS011;8222;51.462;12.630;2023-11-21T05:33:14;8.88;;;4.05;;
16228;SDS011;8222;51.462;12.630;2023-11-21T05:35:39;5.70;;;4.20;;
16228;SDS011;8222;51.462;12.630;2023-11-21T05:38:09;9.23;;;3.57;;
16228;SDS011;8222;51.462;12.630;2023-11-21T05:40:37;4.73;;;4.00;;
16228;SDS011;8222;51.462;12.630;2023-11-21T05:43:06;7.97;;;4.90;;
16228;SDS011;8222;51.462;12.630;2023-11-21T05:45:32;6.20;;;4.47;;
16228;SDS011;8222;51.462;12.630;2023-11-21T05:48:05;7.63;;;5.13;;
16228;SDS011;8222;51.462;12.630;2023-11-21T05:50:34;8.70;;;5.17;;
16228;SDS011;8222;51.462;12.630;2023-11-21T05:53:09;6.77;;;3.93;;
16228;SDS011;8222;51.462;12.630;2023-11-21T05:55:39;6.93;;;5.15;;
16228;SDS011;8222;51.462;12.630;2023-11-21T05:58:08;8.80;;;5.40;;
16228;SDS011;8222;51.462;12.630;2023-11-21T06:00:37;9.40;;;3.97;;
16228;SDS011;8222;51.462;12.630;2023-11-21T06:03:02;7.90;;;5.30;;
16228;SDS011;8222;51.462;12.630;2023-11-21T06:05:31;9.18;;;5.30;;
16228;SDS011;8222;51.462;12.630;2023-11-21T06:08:02;40.53;;;24.67;;
16228;SDS011;8222;51.462;12.630;2023-11-21T06:10:31;10.13;;;6.43;;
16228;SDS011;8222;51.462;12.630;2023-11-21T06:12:57;8.30;;;5.32;;
16228;SDS011;8222;51.462;12.630;2023-11-21T06:15:26;9.10;;;5.38;;
16228;SDS011;8222;51.462;12.630;2023-11-21T06:17:59;10.67;;;5.07;;
16228;SDS011;8222;51.462;12.630;2023-11-21T06:20:28;9.30;;;5.13;;
16228;SDS011;8222;51.462;12.630;2023-11-21T06:22:56;8.63;;;4.77;;
16228;SDS011;8222;51.462;12.630;2023-11-21T06:25:22;10.07;;;4.60;;
16228;SDS011;8222;51.462;12.630;2023-11-21T06:27:50;8.90;;;5.60;;
16228;SDS011;8222;51.462;12.630;2023-11-21T06:30:17;7.77;;;4.83;;
16228;SDS011;8222;51.462;12.630;2023-11-21T06:32:47;7.55;;;5.72;;
16228;SDS011;8222;51.462;12.630;2023-11-21T06:35:13;7.13;;;5.78;;
16228;SDS011;8222;51.462;12.630;2023-11-21T06:37:40;6.00;;;5.27;;
16228;SDS011;8222;51.462;12.630;2023-11-21T06:40:14;14.93;;;5.30;;
16228;SDS011;8222;51.462;12.630;2023-11-21T06:42:43;8.50;;;6.22;;
16228;SDS011;8222;51.462;12.630;2023-11-21T06:45:16;10.43;;;6.18;;
16228;SDS011;8222;51.462;12.630;2023-11-21T06:47:42;9.80;;;6.65;;
16228;SDS011;8222;51.462;12.630;2023-11-21T06:50:08;9.67;;;5.83;;
16228;SDS011;8222;51.462;12.630;2023-11-21T06:52:34;8.70;;;6.28;;
16228;SDS011;8222;51.462;12.630;2023-11-21T06:55:00;10.43;;;7.10;;
16228;SDS011;8222;51.462;12.630;2023-11-21T06:57:26;7.07;;;6.27;;
16228;SDS011;8222;51.462;12.630;2023-11-21T06:59:52;9.37;;;6.33;;
16228;SDS011;8222;51.462;12.630;2023-11-21T07:02:17;5.53;;;5.03;;
16228;SDS011;8222;51.462;12.630;2023-11-21T07:04:46;10.40;;;7.10;;
16228;SDS011;8222;51.462;12.630;2023-11-21T07:07:12;8.90;;;7.50;;
16228;SDS011;8222;51.462;12.630;2023-11-21T07:09:38;13.57;;;8.05;;
16228;SDS011;8222;51.462;12.630;2023-11-21T07:12:04;15.07;;;8.70;;
16228;SDS011;8222;51.462;12.630;2023-11-21T07:14:33;15.15;;;8.88;;
16228;SDS011;8222;51.462;12.630;2023-11-21T07:17:04;14.60;;;9.52;;
16228;SDS011;8222;51.462;12.630;2023-11-21T07:19:32;14.07;;;9.93;;
16228;SDS011;8222;51.462;12.630;2023-11-21T07:22:01;16.45;;;10.45;;
16228;SDS011;8222;51.462;12.630;2023-11-21T07:24:26;13.80;;;10.13;;
16228;SDS011;8222;51.462;12.630;2023-11-21T07:26:56;8.10;;;6.57;;
16228;SDS011;8222;51.462;12.630;2023-11-21T07:29:25;4.50;;;3.93;;
16228;SDS011;8222;51.462;12.630;2023-11-21T07:31:52;4.95;;;3.60;;
16228;SDS011;8222;51.462;12.630;2023-11-21T07:34:21;4.32;;;3.92;;
16228;SDS011;8222;51.462;12.630;2023-11-21T07:39:44;5.50;;;3.80;;
16228;SDS011;8222;51.462;12.630;2023-11-21T07:42:12;4.37;;;3.43;;
16228;SDS011;8222;51.462;12.630;2023-11-21T07:44:41;4.50;;;3.83;;
16228;SDS011;8222;51.462;12.630;2023-11-21T07:47:07;6.37;;;4.43;;
16228;SDS011;8222;51.462;12.630;2023-11-21T07:49:35;3.73;;;3.33;;
16228;SDS011;8222;51.462;12.630;2023-11-21T07:52:09;6.13;;;4.45;;
16228;SDS011;8222;51.462;12.630;2023-11-21T07:54:35;8.07;;;5.17;;
16228;SDS011;8222;51.462;12.630;2023-11-21T07:57:03;7.78;;;5.00;;
16228;SDS011;8222;51.462;12.630;2023-11-21T07:59:29;7.10;;;5.03;;
16228;SDS011;8222;51.462;12.630;2023-11-21T08:01:55;5.83;;;4.27;;
16228;SDS011;8222;51.462;12.630;2023-11-21T08:04:21;6.43;;;5.27;;
16228;SDS011;8222;51.462;12.630;2023-11-21T08:06:48;8.23;;;5.55;;
16228;SDS011;8222;51.462;12.630;2023-11-21T08:09:14;8.80;;;6.23;;
16228;SDS011;8222;51.462;12.630;2023-11-21T08:11:42;7.33;;;5.50;;
16228;SDS011;8222;51.462;12.630;2023-11-21T08:14:16;11.33;;;6.23;;
16228;SDS011;8222;51.462;12.630;2023-11-21T08:16:42;9.33;;;6.30;;
16228;SDS011;8222;51.462;12.630;2023-11-21T08:19:11;9.27;;;5.00;;
16228;SDS011;8222;51.462;12.630;2023-11-21T08:21:43;10.70;;;7.27;;
16228;SDS011;8222;51.462;12.630;2023-11-21T08:24:12;8.97;;;4.67;;
16228;SDS011;8222;51.462;12.630;2023-11-21T08:26:40;11.63;;;6.63;;
16228;SDS011;8222;51.462;12.630;2023-11-21T08:29:08;8.57;;;6.07;;
16228;SDS011;8222;51.462;12.630;2023-11-21T08:31:36;13.50;;;6.82;;
16228;SDS011;8222;51.462;12.630;2023-11-21T08:34:08;11.45;;;6.78;;
16228;SDS011;8222;51.462;12.630;2023-11-21T08:36:34;9.02;;;5.75;;
16228;SDS011;8222;51.462;12.630;2023-11-21T08:39:02;7.87;;;5.37;;
16228;SDS011;8222;51.462;12.630;2023-11-21T08:41:28;8.07;;;5.53;;
16228;SDS011;8222;51.462;12.630;2023-11-21T08:43:57;6.27;;;5.20;;
16228;SDS011;8222;51.462;12.630;2023-11-21T08:46:25;9.95;;;5.60;;
16228;SDS011;8222;51.462;12.630;2023-11-21T08:48:53;8.63;;;6.55;;
16228;SDS011;8222;51.462;12.630;2023-11-21T08:51:19;9.25;;;6.13;;
16228;SDS011;8222;51.462;12.630;2023-11-21T08:53:49;7.95;;;5.63;;
16228;SDS011;8222;51.462;12.630;2023-11-21T08:56:18;6.80;;;5.47;;
16228;SDS011;8222;51.462;12.630;2023-11-21T08:58:45;6.22;;;4.20;;
16228;SDS011;8222;51.462;12.630;2023-11-21T09:01:12;6.07;;;4.40;;
16228;SDS011;8222;51.462;12.630;2023-11-21T09:03:38;9.23;;;5.55;;
16228;SDS011;8222;51.462;12.630;2023-11-21T09:06:04;7.88;;;5.82;;
16228;SDS011;8222;51.462;12.630;2023-11-21T09:08:30;8.88;;;6.03;;
16228;SDS011;8222;51.462;12.630;2023-11-21T09:10:56;7.20;;;5.55;;
16228;SDS011;8222;51.462;12.630;2023-11-21T09:13:22;5.77;;;4.13;;
16228;SDS011;8222;51.462;12.630;2023-11-21T09:15:53;6.40;;;4.90;;
16228;SDS011;8222;51.462;12.630;2023-11-21T09:18:20;4.68;;;4.28;;
16228;SDS011;8222;51.462;12.630;2023-11-21T09:20:45;4.53;;;3.97;;
16228;SDS011;8222;51.462;12.630;2023-11-21T09:23:11;5.60;;;4.83;;
16228;SDS011;8222;51.462;12.630;2023-11-21T09:25:42;4.85;;;4.35;;
16228;SDS011;8222;51.462;12.630;2023-11-21T09:28:11;5.47;;;4.83;;
16228;SDS011;8222;51.462;12.630;2023-11-21T09:30:39;4.07;;;3.33;;
16228;SDS011;8222;51.462;12.630;2023-11-21T09:33:05;6.75;;;5.47;;
16228;SDS011;8222;51.462;12.630;2023-11-21T09:35:35;5.47;;;4.30;;
16228;SDS011;8222;51.462;12.630;2023-11-21T09:38:08;6.10;;;5.27;;
16228;SDS011;8222;51.462;12.630;2023-11-21T09:40:43;8.63;;;6.10;;
16228;SDS011;8222;51.462;12.630;2023-11-21T09:43:09;7.15;;;5.80;;
16228;SDS011;8222;51.462;12.630;2023-11-21T09:45:47;8.90;;;7.25;;
16228;SDS011;8222;51.462;12.630;2023-11-21T09:48:19;8.87;;;7.23;;
16228;SDS011;8222;51.462;12.630;2023-11-21T09:50:46;13.30;;;9.98;;
16228;SDS011;8222;51.462;12.630;2023-11-21T09:53:34;14.20;;;9.73;;
16228;SDS011;8222;51.462;12.630;2023-11-21T09:55:59;14.30;;;10.45;;
16228;SDS011;8222;51.462;12.630;2023-11-21T09:58:27;15.50;;;9.63;;
16228;SDS011;8222;51.462;12.630;2023-11-21T10:00:53;14.70;;;11.20;;
16228;SDS011;8222;51.462;12.630;2023-11-21T10:03:22;12.27;;;8.90;;
16228;SDS011;8222;51.462;12.630;2023-11-21T10:05:55;14.68;;;10.98;;
16228;SDS011;8222;51.462;12.630;2023-11-21T10:08:25;17.30;;;11.98;;
16228;SDS011;8222;51.462;12.630;2023-11-21T10:10:57;14.73;;;9.80;;
16228;SDS011;8222;51.462;12.630;2023-11-21T10:13:24;14.40;;;9.77;;
16228;SDS011;8222;51.462;12.630;2023-11-21T10:16:02;16.92;;;10.95;;
16228;SDS011;8222;51.462;12.630;2023-11-21T10:18:34;14.93;;;10.10;;
16228;SDS011;8222;51.462;12.630;2023-11-21T10:21:13;11.60;;;8.70;;
16228;SDS011;8222;51.462;12.630;2023-11-21T10:23:42;14.03;;;9.87;;
16228;SDS011;8222;51.462;12.630;2023-11-21T10:26:12;11.73;;;8.37;;
16228;SDS011;8222;51.462;12.630;2023-11-21T10:29:03;13.23;;;9.63;;
16228;SDS011;8222;51.462;12.630;2023-11-21T10:31:31;16.70;;;10.25;;
16228;SDS011;8222;51.462;12.630;2023-11-21T10:34:16;13.02;;;10.18;;
16228;SDS011;8222;51.462;12.630;2023-11-21T10:36:51;12.95;;;9.13;;
16228;SDS011;8222;51.462;12.630;2023-11-21T10:39:23;14.18;;;9.43;;
16228;SDS011;8222;51.462;12.630;2023-11-21T10:41:57;9.20;;;7.07;;
16228;SDS011;8222;51.462;12.630;2023-11-21T10:44:22;11.77;;;9.35;;
16228;SDS011;8222;51.462;12.630;2023-11-21T10:46:54;11.20;;;8.17;;
16228;SDS011;8222;51.462;12.630;2023-11-21T10:49:28;14.87;;;9.17;;
16228;SDS011;8222;51.462;12.630;2023-11-21T10:52:02;11.20;;;8.48;;
16228;SDS011;8222;51.462;12.630;2023-11-21T10:54:30;11.40;;;7.82;;
16228;SDS011;8222;51.462;12.630;2023-11-21T10:56:57;11.23;;;8.27;;
16228;SDS011;8222;51.462;12.630;2023-11-21T10:59:30;10.43;;;8.18;;
16228;SDS011;8222;51.462;12.630;2023-11-21T11:02:07;9.85;;;7.35;;
16228;SDS011;8222;51.462;12.630;2023-11-21T11:04:49;8.68;;;6.95;;
16228;SDS011;8222;51.462;12.630;2023-11-21T11:07:20;7.17;;;6.30;;
16228;SDS011;8222;51.462;12.630;2023-11-21T11:09:58;10.88;;;8.40;;
16228;SDS011;8222;51.462;12.630;2023-11-21T11:12:29;9.33;;;7.43;;
16228;SDS011;8222;51.462;12.630;2023-11-21T11:14:59;7.00;;;5.90;;
16228;SDS011;8222;51.462;12.630;2023-11-21T11:17:30;10.38;;;8.02;;
16228;SDS011;8222;51.462;12.630;2023-11-21T11:19:57;10.85;;;7.72;;
16228;SDS011;8222;51.462;12.630;2023-11-21T11:28:07;7.13;;;5.47;;
16228;SDS011;8222;51.462;12.630;2023-11-21T11:33:48;8.80;;;7.40;;
16228;SDS011;8222;51.462;12.630;2023-11-21T11:36:29;7.50;;;6.22;;
16228;SDS011;8222;51.462;12.630;2023-11-21T11:41:57;7.97;;;5.93;;
16228;SDS011;8222;51.462;12.630;2023-11-21T11:53:42;9.60;;;7.38;;
16228;SDS011;8222;51.462;12.630;2023-11-21T11:58:49;9.20;;;7.05;;
16228;SDS011;8222;51.462;12.630;2023-11-21T12:04:45;7.93;;;6.17;;
16228;SDS011;8222;51.462;12.630;2023-11-21T12:07:16;8.03;;;5.87;;
16228;SDS011;8222;51.462;12.630;2023-11-21T12:09:43;8.77;;;6.77;;
16228;SDS011;8222;51.462;12.630;2023-11-21T12:12:15;7.17;;;5.50;;
16228;SDS011;8222;51.462;12.630;2023-11-21T12:15:31;8.40;;;6.63;;
16228;SDS011;8222;51.462;12.630;2023-11-21T12:18:09;7.70;;;6.15;;
16228;SDS011;8222;51.462;12.630;2023-11-21T12:21:04;9.00;;;6.88;;
16228;SDS011;8222;51.462;12.630;2023-11-21T12:23:34;7.50;;;5.95;;
16228;SDS011;8222;51.462;12.630;2023-11-21T12:26:17;7.00;;;5.53;;
16228;SDS011;8222;51.462;12.630;2023-11-21T12:28:54;5.93;;;5.17;;
16228;SDS011;8222;51.462;12.630;2023-11-21T12:31:25;8.05;;;6.22;;
16228;SDS011;8222;51.462;12.630;2023-11-21T12:33:54;7.40;;;5.63;;
16228;SDS011;8222;51.462;12.630;2023-11-21T12:39:15;6.60;;;4.70;;
16228;SDS011;8222;51.462;12.630;2023-11-21T12:41:52;4.80;;;4.37;;
16228;SDS011;8222;51.462;12.630;2023-11-21T12:44:23;6.47;;;4.57;;
16228;SDS011;8222;51.462;12.630;2023-11-21T12:47:02;7.47;;;5.82;;
16228;SDS011;8222;51.462;12.630;2023-11-21T12:49:28;6.73;;;5.53;;
16228;SDS011;8222;51.462;12.630;2023-11-21T12:51:56;6.77;;;5.50;;
16228;SDS011;8222;51.462;12.630;2023-11-21T12:54:28;7.28;;;5.95;;
16228;SDS011;8222;51.462;12.630;2023-11-21T12:56:54;6.07;;;5.03;;
16228;SDS011;8222;51.462;12.630;2023-11-21T12:59:38;4.70;;;4.00;;
16228;SDS011;8222;51.462;12.630;2023-11-21T13:02:12;5.88;;;4.78;;
16228;SDS011;8222;51.462;12.630;2023-11-21T13:07:46;8.07;;;5.43;;
16228;SDS011;8222;51.462;12.630;2023-11-21T13:10:14;5.53;;;4.70;;
16228;SDS011;8222;51.462;12.630;2023-11-21T13:12:51;5.10;;;4.10;;
16228;SDS011;8222;51.462;12.630;2023-11-21T13:15:20;6.32;;;4.75;;
16228;SDS011;8222;51.462;12.630;2023-11-21T13:17:50;4.90;;;4.10;;
16228;SDS011;8222;51.462;12.630;2023-11-21T13:20:21;5.22;;;4.45;;
16228;SDS011;8222;51.462;12.630;2023-11-21T13:22:57;7.27;;;4.70;;
16228;SDS011;8222;51.462;12.630;2023-11-21T13:25:31;5.73;;;4.30;;
16228;SDS011;8222;51.462;12.630;2023-11-21T13:28:02;6.03;;;4.95;;
16228;SDS011;8222;51.462;12.630;2023-11-21T13:30:28;6.57;;;5.40;;
16228;SDS011;8222;51.462;12.630;2023-11-21T13:33:03;6.47;;;5.40;;
16228;SDS011;8222;51.462;12.630;2023-11-21T13:35:38;7.32;;;4.10;;
16228;SDS011;8222;51.462;12.630;2023-11-21T13:38:09;4.73;;;4.00;;
16228;SDS011;8222;51.462;12.630;2023-11-21T13:40:41;4.30;;;3.90;;
16228;SDS011;8222;51.462;12.630;2023-11-21T13:43:16;4.70;;;3.58;;
16228;SDS011;8222;51.462;12.630;2023-11-21T13:45:54;3.88;;;3.47;;
16228;SDS011;8222;51.462;12.630;2023-11-21T13:48:31;5.60;;;3.30;;
16228;SDS011;8222;51.462;12.630;2023-11-21T13:51:20;3.90;;;3.50;;
16228;SDS011;8222;51.462;12.630;2023-11-21T13:54:03;4.95;;;4.07;;
16228;SDS011;8222;51.462;12.630;2023-11-21T13:56:34;5.40;;;4.67;;
16228;SDS011;8222;51.462;12.630;2023-11-21T13:59:15;6.05;;;5.30;;
16228;SDS011;8222;51.462;12.630;2023-11-21T14:01:48;10.05;;;4.43;;
16228;SDS011;8222;51.462;12.630;2023-11-21T14:04:25;3.65;;;3.30;;
16228;SDS011;8222;51.462;12.630;2023-11-21T14:06:59;5.07;;;3.13;;
16228;SDS011;8222;51.462;12.630;2023-11-21T14:09:38;2.47;;;2.23;;
16228;SDS011;8222;51.462;12.630;2023-11-21T14:12:08;4.22;;;2.88;;
16228;SDS011;8222;51.462;12.630;2023-11-21T14:14:38;4.40;;;3.30;;
16228;SDS011;8222;51.462;12.630;2023-11-21T14:17:05;3.20;;;2.90;;
16228;SDS011;8222;51.462;12.630;2023-11-21T14:19:32;4.13;;;3.70;;
16228;SDS011;8222;51.462;12.630;2023-11-21T14:22:04;3.55;;;3.15;;
16228;SDS011;8222;51.462;12.630;2023-11-21T14:24:29;3.53;;;2.95;;
16228;SDS011;8222;51.462;12.630;2023-11-21T14:26:58;3.33;;;2.87;;
16228;SDS011;8222;51.462;12.630;2023-11-21T14:29:24;3.57;;;2.87;;
16228;SDS011;8222;51.462;12.630;2023-11-21T14:31:54;3.80;;;3.28;;
16228;SDS011;8222;51.462;12.630;2023-11-21T14:34:25;3.45;;;3.03;;
16228;SDS011;8222;51.462;12.630;2023-11-21T14:36:53;4.73;;;2.67;;
16228;SDS011;8222;51.462;12.630;2023-11-21T14:39:19;3.33;;;3.03;;
16228;SDS011;8222;51.462;12.630;2023-11-21T14:41:53;3.90;;;2.13;;
16228;SDS011;8222;51.462;12.630;2023-11-21T14:44:28;3.13;;;2.40;;
16228;SDS011;8222;51.462;12.630;2023-11-21T14:47:00;3.33;;;2.80;;
16228;SDS011;8222;51.462;12.630;2023-11-21T14:49:32;3.97;;;3.10;;
16228;SDS011;8222;51.462;12.630;2023-11-21T14:52:16;4.63;;;3.80;;
16228;SDS011;8222;51.462;12.630;2023-11-21T14:55:03;3.33;;;2.73;;
16228;SDS011;8222;51.462;12.630;2023-11-21T14:57:45;5.03;;;3.33;;
16228;SDS011;8222;51.462;12.630;2023-11-21T15:00:15;3.50;;;3.13;;
16228;SDS011;8222;51.462;12.630;2023-11-21T15:03:02;5.00;;;3.88;;
16228;SDS011;8222;51.462;12.630;2023-11-21T15:05:28;3.53;;;2.67;;
16228;SDS011;8222;51.462;12.630;2023-11-21T15:07:54;5.67;;;4.20;;
16228;SDS011;8222;51.462;12.630;2023-11-21T15:10:40;5.93;;;4.22;;
16228;SDS011;8222;51.462;12.630;2023-11-21T15:13:18;10.73;;;6.63;;
16228;SDS011;8222;51.462;12.630;2023-11-21T15:15:46;6.57;;;4.97;;
16228;SDS011;8222;51.462;12.630;2023-11-21T15:18:15;2.73;;;2.50;;
16228;SDS011;8222;51.462;12.630;2023-11-21T15:20:46;7.40;;;2.57;;
16228;SDS011;8222;51.462;12.630;2023-11-21T15:23:19;3.35;;;3.05;;
16228;SDS011;8222;51.462;12.630;2023-11-21T15:25:55;2.50;;;2.25;;
16228;SDS011;8222;51.462;12.630;2023-11-21T15:28:21;2.65;;;2.42;;
16228;SDS011;8222;51.462;12.630;2023-11-21T15:30:47;1.70;;;1.60;;
16228;SDS011;8222;51.462;12.630;2023-11-21T15:33:16;3.05;;;2.40;;
16228;SDS011;8222;51.462;12.630;2023-11-21T15:35:42;2.50;;;2.20;;